sensor_id;sensor_type;location;lat;lon;timestamp;P1;durP1;ratioP1;P2;durP2;ratioP2
16845;SDS011;8539;53.188;8.696;2022-08-19T00:01:22;11.43;;;8.07;;
16845;SDS011;8539;53.188;8.696;2022-08-19T00:03:50;11.07;;;8.90;;
16845;SDS011;8539;53.188;8.696;2022-08-19T00:06:16;10.27;;;7.97;;
16845;SDS011;8539;53.188;8.696;2022-08-19T00:08:43;14.00;;;8.23;;
16845;SDS011;8539;53.188;8.696;2022-08-19T00:11:09;12.43;;;8.60;;
16845;SDS011;8539;53.188;8.696;2022-08-19T00:13:35;16.70;;;7.90;;
16845;SDS011;8539;53.188;8.696;2022-08-19T00:16:04;10.50;;;7.47;;
16845;SDS011;8539;53.188;8.696;2022-08-19T00:18:32;13.68;;;7.45;;
16845;SDS011;8539;53.188;8.696;2022-08-19T00:20:59;11.13;;;8.55;;
16845;SDS011;8539;53.188;8.696;2022-08-19T00:23:25;15.48;;;9.18;;
16845;SDS011;8539;53.188;8.696;2022-08-19T00:25:52;9.02;;;7.78;;
16845;SDS011;8539;53.188;8.696;2022-08-19T00:28:19;8.45;;;6.43;;
16845;SDS011;8539;53.188;8.696;2022-08-19T00:30:46;10.02;;;7.82;;
16845;SDS011;8539;53.188;8.696;2022-08-19T00:33:12;12.30;;;9.20;;
16845;SDS011;8539;53.188;8.696;2022-08-19T00:35:39;14.25;;;8.35;;
16845;SDS011;8539;53.188;8.696;2022-08-19T00:38:05;10.52;;;7.32;;
16845;SDS011;8539;53.188;8.696;2022-08-19T00:40:34;11.35;;;8.18;;
16845;SDS011;8539;53.188;8.696;2022-08-19T00:43:00;10.77;;;7.13;;
16845;SDS011;8539;53.188;8.696;2022-08-19T00:45:27;14.15;;;7.10;;
16845;SDS011;8539;53.188;8.696;2022-08-19T00:47:57;11.75;;;7.65;;
16845;SDS011;8539;53.188;8.696;2022-08-19T00:50:24;9.88;;;8.88;;
16845;SDS011;8539;53.188;8.696;2022-08-19T00:52:50;14.95;;;8.00;;
16845;SDS011;8539;53.188;8.696;2022-08-19T00:55:19;16.27;;;8.13;;
16845;SDS011;8539;53.188;8.696;2022-08-19T00:57:53;12.07;;;8.55;;
16845;SDS011;8539;53.188;8.696;2022-08-19T01:00:24;9.10;;;7.30;;
16845;SDS011;8539;53.188;8.696;2022-08-19T01:02:55;9.48;;;7.72;;
16845;SDS011;8539;53.188;8.696;2022-08-19T01:05:24;10.15;;;7.82;;
16845;SDS011;8539;53.188;8.696;2022-08-19T01:07:58;9.98;;;6.80;;
16845;SDS011;8539;53.188;8.696;2022-08-19T01:10:31;8.98;;;7.15;;
16845;SDS011;8539;53.188;8.696;2022-08-19T01:13:03;8.63;;;7.40;;
16845;SDS011;8539;53.188;8.696;2022-08-19T01:15:35;9.18;;;6.70;;
16845;SDS011;8539;53.188;8.696;2022-08-19T01:18:09;12.82;;;7.63;;
16845;SDS011;8539;53.188;8.696;2022-08-19T01:20:37;11.77;;;8.25;;
16845;SDS011;8539;53.188;8.696;2022-08-19T01:23:05;10.05;;;8.32;;
16845;SDS011;8539;53.188;8.696;2022-08-19T01:25:33;9.38;;;6.63;;
16845;SDS011;8539;53.188;8.696;2022-08-19T01:28:14;9.30;;;7.10;;
16845;SDS011;8539;53.188;8.696;2022-08-19T01:30:52;12.30;;;7.88;;
16845;SDS011;8539;53.188;8.696;2022-08-19T01:33:19;10.88;;;7.95;;
16845;SDS011;8539;53.188;8.696;2022-08-19T01:35:46;10.45;;;7.38;;
16845;SDS011;8539;53.188;8.696;2022-08-19T01:38:21;10.30;;;6.72;;
16845;SDS011;8539;53.188;8.696;2022-08-19T01:40:50;9.52;;;7.78;;
16845;SDS011;8539;53.188;8.696;2022-08-19T01:43:16;11.88;;;7.68;;
16845;SDS011;8539;53.188;8.696;2022-08-19T01:45:44;9.93;;;7.38;;
16845;SDS011;8539;53.188;8.696;2022-08-19T01:48:11;12.52;;;8.15;;
16845;SDS011;8539;53.188;8.696;2022-08-19T01:50:38;11.32;;;8.18;;
16845;SDS011;8539;53.188;8.696;2022-08-19T01:53:05;9.68;;;7.45;;
16845;SDS011;8539;53.188;8.696;2022-08-19T01:55:36;11.25;;;7.22;;
16845;SDS011;8539;53.188;8.696;2022-08-19T01:58:05;10.70;;;7.60;;
16845;SDS011;8539;53.188;8.696;2022-08-19T02:00:38;9.85;;;7.25;;
16845;SDS011;8539;53.188;8.696;2022-08-19T02:03:04;12.52;;;6.68;;
16845;SDS011;8539;53.188;8.696;2022-08-19T02:05:32;8.32;;;6.65;;
16845;SDS011;8539;53.188;8.696;2022-08-19T02:07:58;17.02;;;7.93;;
16845;SDS011;8539;53.188;8.696;2022-08-19T02:10:25;10.73;;;8.30;;
16845;SDS011;8539;53.188;8.696;2022-08-19T02:12:51;10.55;;;7.85;;
16845;SDS011;8539;53.188;8.696;2022-08-19T02:15:18;12.65;;;7.95;;
16845;SDS011;8539;53.188;8.696;2022-08-19T02:17:46;11.27;;;7.78;;
16845;SDS011;8539;53.188;8.696;2022-08-19T02:20:13;12.90;;;8.18;;
16845;SDS011;8539;53.188;8.696;2022-08-19T02:22:40;16.67;;;8.38;;
16845;SDS011;8539;53.188;8.696;2022-08-19T02:25:08;13.13;;;8.57;;
16845;SDS011;8539;53.188;8.696;2022-08-19T02:27:39;8.23;;;6.85;;
16845;SDS011;8539;53.188;8.696;2022-08-19T02:30:07;8.88;;;7.75;;
16845;SDS011;8539;53.188;8.696;2022-08-19T02:32:36;12.80;;;8.85;;
16845;SDS011;8539;53.188;8.696;2022-08-19T02:35:03;10.85;;;8.77;;
16845;SDS011;8539;53.188;8.696;2022-08-19T02:37:29;12.10;;;8.70;;
16845;SDS011;8539;53.188;8.696;2022-08-19T02:40:14;8.90;;;6.80;;
16845;SDS011;8539;53.188;8.696;2022-08-19T02:42:43;8.55;;;7.57;;
16845;SDS011;8539;53.188;8.696;2022-08-19T02:45:14;12.65;;;8.18;;
16845;SDS011;8539;53.188;8.696;2022-08-19T02:47:40;10.52;;;7.85;;
16845;SDS011;8539;53.188;8.696;2022-08-19T02:50:07;15.25;;;8.77;;
16845;SDS011;8539;53.188;8.696;2022-08-19T02:52:34;8.70;;;7.07;;
16845;SDS011;8539;53.188;8.696;2022-08-19T02:55:00;11.38;;;8.30;;
16845;SDS011;8539;53.188;8.696;2022-08-19T02:57:27;12.07;;;8.20;;
16845;SDS011;8539;53.188;8.696;2022-08-19T02:59:56;15.43;;;7.95;;
16845;SDS011;8539;53.188;8.696;2022-08-19T03:02:22;8.43;;;7.57;;
16845;SDS011;8539;53.188;8.696;2022-08-19T03:04:49;15.93;;;7.65;;
16845;SDS011;8539;53.188;8.696;2022-08-19T03:07:15;12.18;;;8.18;;
16845;SDS011;8539;53.188;8.696;2022-08-19T03:09:42;9.23;;;7.25;;
16845;SDS011;8539;53.188;8.696;2022-08-19T03:12:09;7.18;;;6.47;;
16845;SDS011;8539;53.188;8.696;2022-08-19T03:14:36;7.68;;;5.88;;
16845;SDS011;8539;53.188;8.696;2022-08-19T03:17:03;9.10;;;6.20;;
16845;SDS011;8539;53.188;8.696;2022-08-19T03:19:30;8.88;;;6.00;;
16845;SDS011;8539;53.188;8.696;2022-08-19T03:21:57;8.07;;;5.30;;
16845;SDS011;8539;53.188;8.696;2022-08-19T03:24:24;8.40;;;5.22;;
16845;SDS011;8539;53.188;8.696;2022-08-19T03:26:51;8.80;;;5.28;;
16845;SDS011;8539;53.188;8.696;2022-08-19T03:29:25;5.93;;;5.32;;
16845;SDS011;8539;53.188;8.696;2022-08-19T03:31:53;6.70;;;5.65;;
16845;SDS011;8539;53.188;8.696;2022-08-19T03:34:22;9.27;;;5.43;;
16845;SDS011;8539;53.188;8.696;2022-08-19T03:36:54;6.20;;;4.68;;
16845;SDS011;8539;53.188;8.696;2022-08-19T03:39:22;11.10;;;5.88;;
16845;SDS011;8539;53.188;8.696;2022-08-19T03:41:50;9.20;;;6.65;;
16845;SDS011;8539;53.188;8.696;2022-08-19T03:44:18;6.57;;;5.60;;
16845;SDS011;8539;53.188;8.696;2022-08-19T03:46:52;8.80;;;6.70;;
16845;SDS011;8539;53.188;8.696;2022-08-19T03:49:22;8.90;;;5.28;;
16845;SDS011;8539;53.188;8.696;2022-08-19T03:51:50;6.93;;;5.93;;
16845;SDS011;8539;53.188;8.696;2022-08-19T03:54:18;14.73;;;6.22;;
16845;SDS011;8539;53.188;8.696;2022-08-19T03:56:47;6.25;;;5.45;;
16845;SDS011;8539;53.188;8.696;2022-08-19T03:59:16;7.82;;;5.65;;
16845;SDS011;8539;53.188;8.696;2022-08-19T04:01:51;8.88;;;5.00;;
16845;SDS011;8539;53.188;8.696;2022-08-19T04:04:22;8.02;;;5.40;;
16845;SDS011;8539;53.188;8.696;2022-08-19T04:06:49;8.73;;;5.88;;
16845;SDS011;8539;53.188;8.696;2022-08-19T04:09:17;12.40;;;5.53;;
16845;SDS011;8539;53.188;8.696;2022-08-19T04:11:48;8.23;;;5.13;;
16845;SDS011;8539;53.188;8.696;2022-08-19T04:14:22;8.95;;;5.20;;
16845;SDS011;8539;53.188;8.696;2022-08-19T04:16:51;7.82;;;6.15;;
16845;SDS011;8539;53.188;8.696;2022-08-19T04:19:18;8.50;;;6.75;;
16845;SDS011;8539;53.188;8.696;2022-08-19T04:21:46;11.32;;;6.57;;
16845;SDS011;8539;53.188;8.696;2022-08-19T04:24:14;7.05;;;6.10;;
16845;SDS011;8539;53.188;8.696;2022-08-19T04:26:41;8.70;;;6.95;;
16845;SDS011;8539;53.188;8.696;2022-08-19T04:29:19;9.02;;;7.50;;
16845;SDS011;8539;53.188;8.696;2022-08-19T04:31:50;12.48;;;7.93;;
16845;SDS011;8539;53.188;8.696;2022-08-19T04:34:23;9.23;;;7.70;;
16845;SDS011;8539;53.188;8.696;2022-08-19T04:36:55;8.77;;;7.60;;
16845;SDS011;8539;53.188;8.696;2022-08-19T04:39:25;10.45;;;8.57;;
16845;SDS011;8539;53.188;8.696;2022-08-19T04:42:14;13.02;;;9.48;;
16845;SDS011;8539;53.188;8.696;2022-08-19T04:45:02;11.27;;;9.43;;
16845;SDS011;8539;53.188;8.696;2022-08-19T04:47:31;10.63;;;9.52;;
16845;SDS011;8539;53.188;8.696;2022-08-19T04:49:58;14.32;;;10.02;;
16845;SDS011;8539;53.188;8.696;2022-08-19T04:52:24;14.10;;;9.38;;
16845;SDS011;8539;53.188;8.696;2022-08-19T04:54:51;12.07;;;9.50;;
16845;SDS011;8539;53.188;8.696;2022-08-19T04:57:17;14.75;;;9.77;;
16845;SDS011;8539;53.188;8.696;2022-08-19T04:59:43;13.65;;;9.40;;
16845;SDS011;8539;53.188;8.696;2022-08-19T05:02:10;11.60;;;10.40;;
16845;SDS011;8539;53.188;8.696;2022-08-19T05:04:36;13.68;;;11.02;;
16845;SDS011;8539;53.188;8.696;2022-08-19T05:07:05;13.07;;;10.10;;
16845;SDS011;8539;53.188;8.696;2022-08-19T05:09:33;17.98;;;11.80;;
16845;SDS011;8539;53.188;8.696;2022-08-19T05:12:00;15.32;;;11.80;;
16845;SDS011;8539;53.188;8.696;2022-08-19T05:14:26;12.55;;;11.25;;
16845;SDS011;8539;53.188;8.696;2022-08-19T05:16:52;17.45;;;12.27;;
16845;SDS011;8539;53.188;8.696;2022-08-19T05:19:19;17.55;;;11.90;;
16845;SDS011;8539;53.188;8.696;2022-08-19T05:22:03;14.75;;;11.90;;
16845;SDS011;8539;53.188;8.696;2022-08-19T05:24:48;17.08;;;11.52;;
16845;SDS011;8539;53.188;8.696;2022-08-19T05:27:14;13.55;;;11.43;;
16845;SDS011;8539;53.188;8.696;2022-08-19T05:29:41;15.18;;;9.98;;
16845;SDS011;8539;53.188;8.696;2022-08-19T05:32:07;13.30;;;10.32;;
16845;SDS011;8539;53.188;8.696;2022-08-19T05:34:36;16.48;;;11.00;;
16845;SDS011;8539;53.188;8.696;2022-08-19T05:37:04;12.55;;;10.32;;
16845;SDS011;8539;53.188;8.696;2022-08-19T05:39:33;13.82;;;11.13;;
16845;SDS011;8539;53.188;8.696;2022-08-19T05:42:06;13.55;;;10.80;;
16845;SDS011;8539;53.188;8.696;2022-08-19T05:44:35;16.33;;;12.43;;
16845;SDS011;8539;53.188;8.696;2022-08-19T05:47:05;17.67;;;11.20;;
16845;SDS011;8539;53.188;8.696;2022-08-19T05:49:34;14.05;;;10.30;;
16845;SDS011;8539;53.188;8.696;2022-08-19T05:52:06;13.13;;;10.43;;
16845;SDS011;8539;53.188;8.696;2022-08-19T05:54:37;13.93;;;11.77;;
16845;SDS011;8539;53.188;8.696;2022-08-19T05:57:05;15.35;;;10.27;;
16845;SDS011;8539;53.188;8.696;2022-08-19T05:59:32;14.55;;;11.43;;
16845;SDS011;8539;53.188;8.696;2022-08-19T06:02:02;11.93;;;10.20;;
16845;SDS011;8539;53.188;8.696;2022-08-19T06:04:29;11.95;;;9.82;;
16845;SDS011;8539;53.188;8.696;2022-08-19T06:06:55;15.30;;;10.93;;
16845;SDS011;8539;53.188;8.696;2022-08-19T06:09:21;11.23;;;9.55;;
16845;SDS011;8539;53.188;8.696;2022-08-19T06:11:49;11.82;;;9.73;;
16845;SDS011;8539;53.188;8.696;2022-08-19T06:14:21;11.55;;;9.65;;
16845;SDS011;8539;53.188;8.696;2022-08-19T06:16:50;10.45;;;9.10;;
16845;SDS011;8539;53.188;8.696;2022-08-19T06:19:20;15.85;;;9.70;;
16845;SDS011;8539;53.188;8.696;2022-08-19T06:21:50;11.30;;;9.35;;
16845;SDS011;8539;53.188;8.696;2022-08-19T06:24:19;12.05;;;9.18;;
16845;SDS011;8539;53.188;8.696;2022-08-19T06:26:50;12.00;;;8.27;;
16845;SDS011;8539;53.188;8.696;2022-08-19T06:29:19;9.13;;;8.18;;
16845;SDS011;8539;53.188;8.696;2022-08-19T06:31:48;9.98;;;7.97;;
16845;SDS011;8539;53.188;8.696;2022-08-19T06:34:16;8.73;;;7.85;;
16845;SDS011;8539;53.188;8.696;2022-08-19T06:36:48;10.57;;;8.52;;
16845;SDS011;8539;53.188;8.696;2022-08-19T06:39:21;7.75;;;6.90;;
16845;SDS011;8539;53.188;8.696;2022-08-19T06:41:54;7.70;;;6.88;;
16845;SDS011;8539;53.188;8.696;2022-08-19T06:44:23;9.07;;;7.35;;
16845;SDS011;8539;53.188;8.696;2022-08-19T06:46:52;9.07;;;6.82;;
16845;SDS011;8539;53.188;8.696;2022-08-19T06:49:19;10.70;;;7.70;;
16845;SDS011;8539;53.188;8.696;2022-08-19T06:51:46;10.55;;;7.55;;
16845;SDS011;8539;53.188;8.696;2022-08-19T06:54:14;7.00;;;6.28;;
16845;SDS011;8539;53.188;8.696;2022-08-19T06:56:41;8.07;;;6.00;;
16845;SDS011;8539;53.188;8.696;2022-08-19T06:59:10;6.80;;;6.10;;
16845;SDS011;8539;53.188;8.696;2022-08-19T07:01:45;9.48;;;5.15;;
16845;SDS011;8539;53.188;8.696;2022-08-19T07:04:14;8.20;;;5.18;;
16845;SDS011;8539;53.188;8.696;2022-08-19T07:06:42;7.13;;;5.47;;
16845;SDS011;8539;53.188;8.696;2022-08-19T07:09:10;5.93;;;4.97;;
16845;SDS011;8539;53.188;8.696;2022-08-19T07:11:38;5.03;;;4.55;;
16845;SDS011;8539;53.188;8.696;2022-08-19T07:14:04;8.70;;;6.45;;
16845;SDS011;8539;53.188;8.696;2022-08-19T07:16:32;11.30;;;6.63;;
16845;SDS011;8539;53.188;8.696;2022-08-19T07:18:58;8.13;;;6.20;;
16845;SDS011;8539;53.188;8.696;2022-08-19T07:21:25;9.73;;;5.13;;
16845;SDS011;8539;53.188;8.696;2022-08-19T07:23:56;7.65;;;5.63;;
16845;SDS011;8539;53.188;8.696;2022-08-19T07:26:26;7.15;;;4.88;;
16845;SDS011;8539;53.188;8.696;2022-08-19T07:28:55;6.97;;;4.55;;
16845;SDS011;8539;53.188;8.696;2022-08-19T07:31:23;7.95;;;6.15;;
16845;SDS011;8539;53.188;8.696;2022-08-19T07:33:52;6.97;;;4.60;;
16845;SDS011;8539;53.188;8.696;2022-08-19T07:36:22;6.28;;;5.50;;
16845;SDS011;8539;53.188;8.696;2022-08-19T07:38:56;6.07;;;5.47;;
16845;SDS011;8539;53.188;8.696;2022-08-19T07:41:25;7.40;;;5.38;;
16845;SDS011;8539;53.188;8.696;2022-08-19T07:43:54;5.75;;;5.13;;
16845;SDS011;8539;53.188;8.696;2022-08-19T07:46:21;7.13;;;4.63;;
16845;SDS011;8539;53.188;8.696;2022-08-19T07:48:48;7.30;;;5.38;;
16845;SDS011;8539;53.188;8.696;2022-08-19T07:51:21;7.95;;;4.18;;
16845;SDS011;8539;53.188;8.696;2022-08-19T07:53:48;4.00;;;2.95;;
16845;SDS011;8539;53.188;8.696;2022-08-19T07:56:18;5.18;;;3.08;;
16845;SDS011;8539;53.188;8.696;2022-08-19T07:58:46;3.97;;;2.72;;
16845;SDS011;8539;53.188;8.696;2022-08-19T08:01:15;5.63;;;2.83;;
16845;SDS011;8539;53.188;8.696;2022-08-19T08:03:50;3.25;;;2.55;;
16845;SDS011;8539;53.188;8.696;2022-08-19T08:06:36;3.33;;;2.92;;
16845;SDS011;8539;53.188;8.696;2022-08-19T08:09:31;4.97;;;2.35;;
16845;SDS011;8539;53.188;8.696;2022-08-19T08:12:01;2.63;;;2.40;;
16845;SDS011;8539;53.188;8.696;2022-08-19T08:14:33;7.22;;;2.95;;
16845;SDS011;8539;53.188;8.696;2022-08-19T08:17:05;5.45;;;2.13;;
16845;SDS011;8539;53.188;8.696;2022-08-19T08:19:31;3.53;;;2.35;;
16845;SDS011;8539;53.188;8.696;2022-08-19T08:21:58;2.85;;;2.33;;
16845;SDS011;8539;53.188;8.696;2022-08-19T08:24:27;4.00;;;2.22;;
16845;SDS011;8539;53.188;8.696;2022-08-19T08:26:57;4.53;;;2.42;;
16845;SDS011;8539;53.188;8.696;2022-08-19T08:29:25;2.72;;;2.13;;
16845;SDS011;8539;53.188;8.696;2022-08-19T08:31:55;2.88;;;2.28;;
16845;SDS011;8539;53.188;8.696;2022-08-19T08:34:22;3.05;;;2.20;;
16845;SDS011;8539;53.188;8.696;2022-08-19T08:36:48;2.67;;;1.98;;
16845;SDS011;8539;53.188;8.696;2022-08-19T08:39:18;6.88;;;2.67;;
16845;SDS011;8539;53.188;8.696;2022-08-19T08:44:58;6.25;;;3.20;;
16845;SDS011;8539;53.188;8.696;2022-08-19T08:47:29;4.53;;;3.10;;
16845;SDS011;8539;53.188;8.696;2022-08-19T08:50:03;3.00;;;2.40;;
16845;SDS011;8539;53.188;8.696;2022-08-19T08:52:34;3.00;;;2.05;;
16845;SDS011;8539;53.188;8.696;2022-08-19T08:55:11;2.38;;;1.73;;
16845;SDS011;8539;53.188;8.696;2022-08-19T08:57:51;3.90;;;2.00;;
16845;SDS011;8539;53.188;8.696;2022-08-19T09:00:35;10.20;;;2.03;;
16845;SDS011;8539;53.188;8.696;2022-08-19T09:03:47;3.25;;;1.60;;
16845;SDS011;8539;53.188;8.696;2022-08-19T09:06:03;2.58;;;1.95;;
16845;SDS011;8539;53.188;8.696;2022-08-19T09:11:10;1.77;;;1.60;;
16845;SDS011;8539;53.188;8.696;2022-08-19T09:14:07;2.42;;;1.80;;
16845;SDS011;8539;53.188;8.696;2022-08-19T09:16:56;3.42;;;1.65;;
16845;SDS011;8539;53.188;8.696;2022-08-19T09:19:23;3.08;;;1.60;;
16845;SDS011;8539;53.188;8.696;2022-08-19T09:21:50;3.92;;;1.52;;
16845;SDS011;8539;53.188;8.696;2022-08-19T09:24:16;4.22;;;1.50;;
16845;SDS011;8539;53.188;8.696;2022-08-19T09:26:42;2.67;;;1.50;;
16845;SDS011;8539;53.188;8.696;2022-08-19T09:29:09;5.93;;;2.70;;
16845;SDS011;8539;53.188;8.696;2022-08-19T09:31:36;2.63;;;1.67;;
16845;SDS011;8539;53.188;8.696;2022-08-19T09:34:02;1.30;;;1.20;;
16845;SDS011;8539;53.188;8.696;2022-08-19T09:36:31;1.65;;;1.25;;
16845;SDS011;8539;53.188;8.696;2022-08-19T09:39:04;2.05;;;1.27;;
16845;SDS011;8539;53.188;8.696;2022-08-19T09:41:31;2.83;;;1.05;;
16845;SDS011;8539;53.188;8.696;2022-08-19T09:43:58;1.35;;;1.15;;
16845;SDS011;8539;53.188;8.696;2022-08-19T09:46:26;2.42;;;1.15;;
16845;SDS011;8539;53.188;8.696;2022-08-19T09:48:54;2.20;;;1.40;;
16845;SDS011;8539;53.188;8.696;2022-08-19T09:51:24;2.33;;;0.98;;
16845;SDS011;8539;53.188;8.696;2022-08-19T09:53:53;5.18;;;1.40;;
16845;SDS011;8539;53.188;8.696;2022-08-19T09:56:23;1.75;;;1.27;;
16845;SDS011;8539;53.188;8.696;2022-08-19T09:58:50;1.98;;;1.40;;
16845;SDS011;8539;53.188;8.696;2022-08-19T10:01:20;1.10;;;1.00;;
16845;SDS011;8539;53.188;8.696;2022-08-19T10:03:52;4.10;;;1.63;;
16845;SDS011;8539;53.188;8.696;2022-08-19T10:06:22;2.95;;;1.20;;
16845;SDS011;8539;53.188;8.696;2022-08-19T10:08:49;4.85;;;0.93;;
16845;SDS011;8539;53.188;8.696;2022-08-19T10:11:17;2.50;;;1.00;;
16845;SDS011;8539;53.188;8.696;2022-08-19T10:13:45;1.77;;;1.20;;
16845;SDS011;8539;53.188;8.696;2022-08-19T10:16:16;2.88;;;1.02;;
16845;SDS011;8539;53.188;8.696;2022-08-19T10:18:45;1.50;;;1.05;;
16845;SDS011;8539;53.188;8.696;2022-08-19T10:21:30;1.40;;;0.93;;
16845;SDS011;8539;53.188;8.696;2022-08-19T10:23:59;2.03;;;1.10;;
16845;SDS011;8539;53.188;8.696;2022-08-19T10:26:30;1.65;;;1.00;;
16845;SDS011;8539;53.188;8.696;2022-08-19T10:28:59;2.10;;;0.90;;
16845;SDS011;8539;53.188;8.696;2022-08-19T10:31:26;3.70;;;1.00;;
16845;SDS011;8539;53.188;8.696;2022-08-19T10:33:54;1.65;;;1.10;;
16845;SDS011;8539;53.188;8.696;2022-08-19T10:36:24;1.88;;;1.02;;
16845;SDS011;8539;53.188;8.696;2022-08-19T10:38:57;1.27;;;1.00;;
16845;SDS011;8539;53.188;8.696;2022-08-19T10:41:27;1.58;;;0.90;;
16845;SDS011;8539;53.188;8.696;2022-08-19T10:43:56;1.40;;;1.02;;
16845;SDS011;8539;53.188;8.696;2022-08-19T10:46:24;1.50;;;1.00;;
16845;SDS011;8539;53.188;8.696;2022-08-19T10:48:52;1.85;;;1.20;;
16845;SDS011;8539;53.188;8.696;2022-08-19T10:51:19;2.00;;;1.48;;
16845;SDS011;8539;53.188;8.696;2022-08-19T10:54:05;1.80;;;1.00;;
16845;SDS011;8539;53.188;8.696;2022-08-19T10:56:32;1.88;;;0.70;;
16845;SDS011;8539;53.188;8.696;2022-08-19T10:59:28;1.38;;;0.80;;
16845;SDS011;8539;53.188;8.696;2022-08-19T11:01:58;2.05;;;1.35;;
16845;SDS011;8539;53.188;8.696;2022-08-19T11:04:26;1.17;;;0.80;;
16845;SDS011;8539;53.188;8.696;2022-08-19T11:06:52;0.95;;;0.70;;
16845;SDS011;8539;53.188;8.696;2022-08-19T11:09:20;1.92;;;1.00;;
16845;SDS011;8539;53.188;8.696;2022-08-19T11:11:52;1.85;;;0.93;;
16845;SDS011;8539;53.188;8.696;2022-08-19T11:14:19;1.55;;;0.80;;
16845;SDS011;8539;53.188;8.696;2022-08-19T11:16:47;2.00;;;0.95;;
16845;SDS011;8539;53.188;8.696;2022-08-19T11:19:14;1.75;;;0.88;;
16845;SDS011;8539;53.188;8.696;2022-08-19T11:21:44;1.60;;;1.10;;
16845;SDS011;8539;53.188;8.696;2022-08-19T11:24:13;1.92;;;0.90;;
16845;SDS011;8539;53.188;8.696;2022-08-19T11:26:42;1.58;;;0.77;;
16845;SDS011;8539;53.188;8.696;2022-08-19T11:29:10;0.73;;;0.60;;
16845;SDS011;8539;53.188;8.696;2022-08-19T11:31:39;2.88;;;0.80;;
16845;SDS011;8539;53.188;8.696;2022-08-19T11:34:09;1.58;;;0.63;;
16845;SDS011;8539;53.188;8.696;2022-08-19T11:36:39;3.45;;;0.90;;
16845;SDS011;8539;53.188;8.696;2022-08-19T11:39:08;1.45;;;0.88;;
16845;SDS011;8539;53.188;8.696;2022-08-19T11:41:36;1.92;;;0.70;;
16845;SDS011;8539;53.188;8.696;2022-08-19T11:44:02;1.58;;;0.85;;
16845;SDS011;8539;53.188;8.696;2022-08-19T11:46:30;2.90;;;1.10;;
16845;SDS011;8539;53.188;8.696;2022-08-19T11:48:57;2.22;;;1.05;;
16845;SDS011;8539;53.188;8.696;2022-08-19T11:51:25;1.40;;;0.82;;
16845;SDS011;8539;53.188;8.696;2022-08-19T11:53:53;1.35;;;0.80;;
16845;SDS011;8539;53.188;8.696;2022-08-19T11:56:20;3.67;;;0.80;;
16845;SDS011;8539;53.188;8.696;2022-08-19T11:58:47;0.70;;;0.70;;
16845;SDS011;8539;53.188;8.696;2022-08-19T12:01:15;1.15;;;0.60;;
16845;SDS011;8539;53.188;8.696;2022-08-19T12:03:46;3.80;;;1.00;;
16845;SDS011;8539;53.188;8.696;2022-08-19T12:06:16;1.30;;;0.63;;
16845;SDS011;8539;53.188;8.696;2022-08-19T12:08:49;0.82;;;0.70;;
16845;SDS011;8539;53.188;8.696;2022-08-19T12:11:15;1.23;;;0.70;;
16845;SDS011;8539;53.188;8.696;2022-08-19T12:13:46;0.80;;;0.40;;
16845;SDS011;8539;53.188;8.696;2022-08-19T12:16:23;1.27;;;0.70;;
16845;SDS011;8539;53.188;8.696;2022-08-19T12:18:57;0.50;;;0.50;;
16845;SDS011;8539;53.188;8.696;2022-08-19T12:21:28;0.75;;;0.75;;
16845;SDS011;8539;53.188;8.696;2022-08-19T12:23:56;2.15;;;1.20;;
16845;SDS011;8539;53.188;8.696;2022-08-19T12:26:24;1.05;;;0.88;;
16845;SDS011;8539;53.188;8.696;2022-08-19T12:28:52;0.50;;;0.50;;
16845;SDS011;8539;53.188;8.696;2022-08-19T12:31:19;0.60;;;0.60;;
16845;SDS011;8539;53.188;8.696;2022-08-19T12:33:50;1.73;;;0.60;;
16845;SDS011;8539;53.188;8.696;2022-08-19T12:36:17;1.27;;;0.55;;
16845;SDS011;8539;53.188;8.696;2022-08-19T12:38:44;0.60;;;0.47;;
16845;SDS011;8539;53.188;8.696;2022-08-19T12:41:11;1.13;;;0.60;;
16845;SDS011;8539;53.188;8.696;2022-08-19T12:43:44;1.13;;;0.55;;
16845;SDS011;8539;53.188;8.696;2022-08-19T12:46:11;0.70;;;0.70;;
16845;SDS011;8539;53.188;8.696;2022-08-19T12:48:39;1.73;;;0.70;;
16845;SDS011;8539;53.188;8.696;2022-08-19T12:51:09;1.33;;;0.50;;
16845;SDS011;8539;53.188;8.696;2022-08-19T12:53:42;1.20;;;0.75;;
16845;SDS011;8539;53.188;8.696;2022-08-19T12:56:09;1.83;;;0.80;;
16845;SDS011;8539;53.188;8.696;2022-08-19T12:58:37;1.38;;;0.60;;
16845;SDS011;8539;53.188;8.696;2022-08-19T13:01:10;1.30;;;0.50;;
16845;SDS011;8539;53.188;8.696;2022-08-19T13:03:40;2.60;;;0.95;;
16845;SDS011;8539;53.188;8.696;2022-08-19T13:06:13;0.57;;;0.57;;
16845;SDS011;8539;53.188;8.696;2022-08-19T13:08:45;1.08;;;0.60;;
16845;SDS011;8539;53.188;8.696;2022-08-19T13:11:12;3.05;;;0.73;;
16845;SDS011;8539;53.188;8.696;2022-08-19T13:13:41;0.95;;;0.80;;
16845;SDS011;8539;53.188;8.696;2022-08-19T13:16:09;0.77;;;0.60;;
16845;SDS011;8539;53.188;8.696;2022-08-19T13:18:37;1.20;;;0.60;;
16845;SDS011;8539;53.188;8.696;2022-08-19T13:21:05;1.05;;;0.70;;
16845;SDS011;8539;53.188;8.696;2022-08-19T13:23:34;1.30;;;0.73;;
16845;SDS011;8539;53.188;8.696;2022-08-19T13:26:03;0.80;;;0.80;;
16845;SDS011;8539;53.188;8.696;2022-08-19T13:28:31;1.25;;;0.82;;
16845;SDS011;8539;53.188;8.696;2022-08-19T13:31:18;2.17;;;0.68;;
16845;SDS011;8539;53.188;8.696;2022-08-19T13:34:04;1.10;;;0.75;;
16845;SDS011;8539;53.188;8.696;2022-08-19T13:36:31;1.88;;;1.02;;
16845;SDS011;8539;53.188;8.696;2022-08-19T13:39:03;1.25;;;1.10;;
16845;SDS011;8539;53.188;8.696;2022-08-19T13:41:30;1.33;;;1.10;;
16845;SDS011;8539;53.188;8.696;2022-08-19T13:43:57;1.70;;;1.15;;
16845;SDS011;8539;53.188;8.696;2022-08-19T13:46:23;2.58;;;1.08;;
16845;SDS011;8539;53.188;8.696;2022-08-19T13:48:55;1.67;;;0.77;;
16845;SDS011;8539;53.188;8.696;2022-08-19T13:51:22;1.00;;;0.90;;
16845;SDS011;8539;53.188;8.696;2022-08-19T13:53:48;2.22;;;1.10;;
16845;SDS011;8539;53.188;8.696;2022-08-19T13:56:17;0.85;;;0.82;;
16845;SDS011;8539;53.188;8.696;2022-08-19T13:58:45;2.38;;;1.25;;
16845;SDS011;8539;53.188;8.696;2022-08-19T14:01:12;1.27;;;0.80;;
16845;SDS011;8539;53.188;8.696;2022-08-19T14:03:48;1.33;;;0.80;;
16845;SDS011;8539;53.188;8.696;2022-08-19T14:06:15;1.02;;;0.80;;
16845;SDS011;8539;53.188;8.696;2022-08-19T14:08:46;1.80;;;0.90;;
16845;SDS011;8539;53.188;8.696;2022-08-19T14:11:13;1.05;;;0.93;;
16845;SDS011;8539;53.188;8.696;2022-08-19T14:13:39;2.05;;;0.70;;
16845;SDS011;8539;53.188;8.696;2022-08-19T14:16:07;3.38;;;1.00;;
16845;SDS011;8539;53.188;8.696;2022-08-19T14:18:35;2.50;;;1.20;;
16845;SDS011;8539;53.188;8.696;2022-08-19T14:21:02;2.65;;;1.38;;
16845;SDS011;8539;53.188;8.696;2022-08-19T14:23:30;2.47;;;1.45;;
16845;SDS011;8539;53.188;8.696;2022-08-19T14:26:08;1.08;;;0.98;;
16845;SDS011;8539;53.188;8.696;2022-08-19T14:28:42;1.10;;;1.00;;
16845;SDS011;8539;53.188;8.696;2022-08-19T14:31:11;1.90;;;1.05;;
16845;SDS011;8539;53.188;8.696;2022-08-19T14:33:40;1.55;;;1.38;;
16845;SDS011;8539;53.188;8.696;2022-08-19T14:36:06;1.10;;;1.00;;
16845;SDS011;8539;53.188;8.696;2022-08-19T14:38:33;3.70;;;1.10;;
16845;SDS011;8539;53.188;8.696;2022-08-19T14:41:10;3.38;;;1.20;;
16845;SDS011;8539;53.188;8.696;2022-08-19T14:43:45;2.45;;;1.40;;
16845;SDS011;8539;53.188;8.696;2022-08-19T14:46:14;2.10;;;1.10;;
16845;SDS011;8539;53.188;8.696;2022-08-19T14:48:42;3.90;;;1.20;;
16845;SDS011;8539;53.188;8.696;2022-08-19T14:51:09;1.83;;;1.40;;
16845;SDS011;8539;53.188;8.696;2022-08-19T14:53:35;2.85;;;1.50;;
16845;SDS011;8539;53.188;8.696;2022-08-19T14:56:06;2.60;;;1.63;;
16845;SDS011;8539;53.188;8.696;2022-08-19T14:58:43;4.97;;;1.20;;
16845;SDS011;8539;53.188;8.696;2022-08-19T15:01:10;1.00;;;0.85;;
16845;SDS011;8539;53.188;8.696;2022-08-19T15:03:38;1.88;;;1.30;;
16845;SDS011;8539;53.188;8.696;2022-08-19T15:06:06;1.65;;;1.23;;
16845;SDS011;8539;53.188;8.696;2022-08-19T15:08:34;1.38;;;1.10;;
16845;SDS011;8539;53.188;8.696;2022-08-19T15:11:02;5.43;;;1.65;;
16845;SDS011;8539;53.188;8.696;2022-08-19T15:13:35;1.85;;;1.10;;
16845;SDS011;8539;53.188;8.696;2022-08-19T15:16:01;2.53;;;1.50;;